sensor_id;sensor_type;location;lat;lon;timestamp;P1;durP1;ratioP1;P2;durP2;ratioP2
61487;SDS011;47351;53.326;-6.298;2022-12-05T00:00:47;11.20;;;6.00;;
61487;SDS011;47351;53.326;-6.298;2022-12-05T00:03:40;11.70;;;6.70;;
61487;SDS011;47351;53.326;-6.298;2022-12-05T00:06:36;13.50;;;6.70;;
61487;SDS011;47351;53.326;-6.298;2022-12-05T00:09:30;14.80;;;6.90;;
61487;SDS011;47351;53.326;-6.298;2022-12-05T00:12:24;14.20;;;6.70;;
61487;SDS011;47351;53.326;-6.298;2022-12-05T00:15:17;12.40;;;6.90;;
61487;SDS011;47351;53.326;-6.298;2022-12-05T00:18:11;12.40;;;6.80;;
61487;SDS011;47351;53.326;-6.298;2022-12-05T00:21:04;14.60;;;7.60;;
61487;SDS011;47351;53.326;-6.298;2022-12-05T00:24:01;12.80;;;7.30;;
61487;SDS011;47351;53.326;-6.298;2022-12-05T00:26:58;12.20;;;7.40;;
61487;SDS011;47351;53.326;-6.298;2022-12-05T00:29:52;14.40;;;8.30;;
61487;SDS011;47351;53.326;-6.298;2022-12-05T00:32:45;13.60;;;6.90;;
61487;SDS011;47351;53.326;-6.298;2022-12-05T00:35:38;10.90;;;6.70;;
61487;SDS011;47351;53.326;-6.298;2022-12-05T00:38:34;10.70;;;5.80;;
61487;SDS011;47351;53.326;-6.298;2022-12-05T00:41:30;11.30;;;5.90;;
61487;SDS011;47351;53.326;-6.298;2022-12-05T00:44:23;12.00;;;5.60;;
61487;SDS011;47351;53.326;-6.298;2022-12-05T00:47:16;13.80;;;5.90;;
61487;SDS011;47351;53.326;-6.298;2022-12-05T00:50:14;10.40;;;5.80;;
61487;SDS011;47351;53.326;-6.298;2022-12-05T00:53:13;18.30;;;6.30;;
61487;SDS011;47351;53.326;-6.298;2022-12-05T00:56:09;13.00;;;6.40;;
61487;SDS011;47351;53.326;-6.298;2022-12-05T00:59:06;16.70;;;6.20;;
61487;SDS011;47351;53.326;-6.298;2022-12-05T01:02:05;11.30;;;5.10;;
61487;SDS011;47351;53.326;-6.298;2022-12-05T01:04:59;12.00;;;5.20;;
61487;SDS011;47351;53.326;-6.298;2022-12-05T01:07:52;10.80;;;4.90;;
61487;SDS011;47351;53.326;-6.298;2022-12-05T01:10:52;9.20;;;4.80;;
61487;SDS011;47351;53.326;-6.298;2022-12-05T01:13:45;9.00;;;4.40;;
61487;SDS011;47351;53.326;-6.298;2022-12-05T01:16:40;11.10;;;4.70;;
61487;SDS011;47351;53.326;-6.298;2022-12-05T01:19:34;7.50;;;3.90;;
61487;SDS011;47351;53.326;-6.298;2022-12-05T01:22:27;10.70;;;4.70;;
61487;SDS011;47351;53.326;-6.298;2022-12-05T01:25:20;9.00;;;4.50;;
61487;SDS011;47351;53.326;-6.298;2022-12-05T01:28:13;10.10;;;4.50;;
61487;SDS011;47351;53.326;-6.298;2022-12-05T01:31:07;11.30;;;5.20;;
61487;SDS011;47351;53.326;-6.298;2022-12-05T01:34:23;8.90;;;4.20;;
61487;SDS011;47351;53.326;-6.298;2022-12-05T01:37:15;9.80;;;4.10;;
61487;SDS011;47351;53.326;-6.298;2022-12-05T01:40:08;8.20;;;4.20;;
61487;SDS011;47351;53.326;-6.298;2022-12-05T01:43:05;10.50;;;4.30;;
61487;SDS011;47351;53.326;-6.298;2022-12-05T01:46:06;9.90;;;4.60;;
61487;SDS011;47351;53.326;-6.298;2022-12-05T01:49:00;9.60;;;4.10;;
61487;SDS011;47351;53.326;-6.298;2022-12-05T01:52:01;10.00;;;4.90;;
61487;SDS011;47351;53.326;-6.298;2022-12-05T01:54:57;9.10;;;4.10;;
61487;SDS011;47351;53.326;-6.298;2022-12-05T01:57:55;10.30;;;4.20;;
61487;SDS011;47351;53.326;-6.298;2022-12-05T02:00:50;7.70;;;3.80;;
61487;SDS011;47351;53.326;-6.298;2022-12-05T02:03:47;9.00;;;4.10;;
61487;SDS011;47351;53.326;-6.298;2022-12-05T02:06:49;10.50;;;4.40;;
61487;SDS011;47351;53.326;-6.298;2022-12-05T02:09:41;7.70;;;4.00;;
61487;SDS011;47351;53.326;-6.298;2022-12-05T02:12:35;8.20;;;4.20;;
61487;SDS011;47351;53.326;-6.298;2022-12-05T02:15:34;9.00;;;4.20;;
61487;SDS011;47351;53.326;-6.298;2022-12-05T02:18:36;12.80;;;4.60;;
61487;SDS011;47351;53.326;-6.298;2022-12-05T02:21:44;9.60;;;4.60;;
61487;SDS011;47351;53.326;-6.298;2022-12-05T02:25:02;9.80;;;4.70;;
61487;SDS011;47351;53.326;-6.298;2022-12-05T02:28:32;12.60;;;4.60;;
61487;SDS011;47351;53.326;-6.298;2022-12-05T02:31:40;7.40;;;4.10;;
61487;SDS011;47351;53.326;-6.298;2022-12-05T02:34:43;9.80;;;4.30;;
61487;SDS011;47351;53.326;-6.298;2022-12-05T02:37:43;8.40;;;4.00;;
61487;SDS011;47351;53.326;-6.298;2022-12-05T02:40:48;7.70;;;3.90;;
61487;SDS011;47351;53.326;-6.298;2022-12-05T02:43:49;7.60;;;4.00;;
61487;SDS011;47351;53.326;-6.298;2022-12-05T02:46:47;8.00;;;4.00;;
61487;SDS011;47351;53.326;-6.298;2022-12-05T02:49:43;8.50;;;4.60;;
61487;SDS011;47351;53.326;-6.298;2022-12-05T02:52:41;8.70;;;4.00;;
61487;SDS011;47351;53.326;-6.298;2022-12-05T02:55:38;8.20;;;4.00;;
61487;SDS011;47351;53.326;-6.298;2022-12-05T02:58:35;6.70;;;4.10;;
61487;SDS011;47351;53.326;-6.298;2022-12-05T03:01:36;8.20;;;4.00;;
61487;SDS011;47351;53.326;-6.298;2022-12-05T03:04:29;8.60;;;4.10;;
61487;SDS011;47351;53.326;-6.298;2022-12-05T03:07:25;9.70;;;4.50;;
61487;SDS011;47351;53.326;-6.298;2022-12-05T03:10:22;7.50;;;4.60;;
61487;SDS011;47351;53.326;-6.298;2022-12-05T03:13:22;9.60;;;5.60;;
61487;SDS011;47351;53.326;-6.298;2022-12-05T03:16:26;9.90;;;4.90;;
61487;SDS011;47351;53.326;-6.298;2022-12-05T03:19:29;7.90;;;5.10;;
61487;SDS011;47351;53.326;-6.298;2022-12-05T03:22:26;8.60;;;4.90;;
61487;SDS011;47351;53.326;-6.298;2022-12-05T03:25:23;8.40;;;4.30;;
61487;SDS011;47351;53.326;-6.298;2022-12-05T03:28:22;8.70;;;4.20;;
61487;SDS011;47351;53.326;-6.298;2022-12-05T03:31:23;6.10;;;4.00;;
61487;SDS011;47351;53.326;-6.298;2022-12-05T03:34:31;7.30;;;4.10;;
61487;SDS011;47351;53.326;-6.298;2022-12-05T03:37:34;9.40;;;4.70;;
61487;SDS011;47351;53.326;-6.298;2022-12-05T03:40:33;8.40;;;4.60;;
61487;SDS011;47351;53.326;-6.298;2022-12-05T03:43:38;8.60;;;5.00;;
61487;SDS011;47351;53.326;-6.298;2022-12-05T03:46:39;10.90;;;5.10;;
61487;SDS011;47351;53.326;-6.298;2022-12-05T03:49:39;11.50;;;5.90;;
61487;SDS011;47351;53.326;-6.298;2022-12-05T03:52:38;9.20;;;5.40;;
61487;SDS011;47351;53.326;-6.298;2022-12-05T03:55:59;11.90;;;6.10;;
61487;SDS011;47351;53.326;-6.298;2022-12-05T03:59:01;11.40;;;6.60;;
61487;SDS011;47351;53.326;-6.298;2022-12-05T04:02:17;11.10;;;5.40;;
61487;SDS011;47351;53.326;-6.298;2022-12-05T04:05:23;8.40;;;4.50;;
61487;SDS011;47351;53.326;-6.298;2022-12-05T04:08:27;11.70;;;4.70;;
61487;SDS011;47351;53.326;-6.298;2022-12-05T04:11:26;11.40;;;5.30;;
61487;SDS011;47351;53.326;-6.298;2022-12-05T04:14:24;27.60;;;10.30;;
61487;SDS011;47351;53.326;-6.298;2022-12-05T04:17:29;11.50;;;5.80;;
61487;SDS011;47351;53.326;-6.298;2022-12-05T04:20:26;11.50;;;6.00;;
61487;SDS011;47351;53.326;-6.298;2022-12-05T04:23:45;11.70;;;5.70;;
61487;SDS011;47351;53.326;-6.298;2022-12-05T04:27:05;9.30;;;4.90;;
61487;SDS011;47351;53.326;-6.298;2022-12-05T04:30:13;10.70;;;5.40;;
61487;SDS011;47351;53.326;-6.298;2022-12-05T04:33:11;10.60;;;4.80;;
61487;SDS011;47351;53.326;-6.298;2022-12-05T04:36:14;9.00;;;5.50;;
61487;SDS011;47351;53.326;-6.298;2022-12-05T04:39:19;10.20;;;4.70;;
61487;SDS011;47351;53.326;-6.298;2022-12-05T04:42:20;13.20;;;5.30;;
61487;SDS011;47351;53.326;-6.298;2022-12-05T04:45:19;10.60;;;5.70;;
61487;SDS011;47351;53.326;-6.298;2022-12-05T04:48:18;12.60;;;5.80;;
61487;SDS011;47351;53.326;-6.298;2022-12-05T04:51:16;9.70;;;5.50;;
61487;SDS011;47351;53.326;-6.298;2022-12-05T04:54:14;11.80;;;5.10;;
61487;SDS011;47351;53.326;-6.298;2022-12-05T04:57:12;11.70;;;5.40;;
61487;SDS011;47351;53.326;-6.298;2022-12-05T05:00:12;16.10;;;5.70;;
61487;SDS011;47351;53.326;-6.298;2022-12-05T05:03:09;9.60;;;5.20;;
61487;SDS011;47351;53.326;-6.298;2022-12-05T05:06:06;14.80;;;4.90;;
61487;SDS011;47351;53.326;-6.298;2022-12-05T05:09:03;11.60;;;4.60;;
61487;SDS011;47351;53.326;-6.298;2022-12-05T05:11:59;11.60;;;4.20;;
61487;SDS011;47351;53.326;-6.298;2022-12-05T05:15:07;13.40;;;5.10;;
61487;SDS011;47351;53.326;-6.298;2022-12-05T05:18:00;15.30;;;5.20;;
61487;SDS011;47351;53.326;-6.298;2022-12-05T05:21:00;11.20;;;5.60;;
61487;SDS011;47351;53.326;-6.298;2022-12-05T05:23:53;19.30;;;5.30;;
61487;SDS011;47351;53.326;-6.298;2022-12-05T05:26:47;13.70;;;4.80;;
61487;SDS011;47351;53.326;-6.298;2022-12-05T05:29:45;10.60;;;3.90;;
61487;SDS011;47351;53.326;-6.298;2022-12-05T05:32:45;9.10;;;3.70;;
61487;SDS011;47351;53.326;-6.298;2022-12-05T05:35:38;7.50;;;3.40;;
61487;SDS011;47351;53.326;-6.298;2022-12-05T05:38:30;9.20;;;3.90;;
61487;SDS011;47351;53.326;-6.298;2022-12-05T05:41:30;8.10;;;4.20;;
61487;SDS011;47351;53.326;-6.298;2022-12-05T05:44:26;8.10;;;4.10;;
61487;SDS011;47351;53.326;-6.298;2022-12-05T05:47:19;12.40;;;4.30;;
61487;SDS011;47351;53.326;-6.298;2022-12-05T05:50:21;11.00;;;5.10;;
61487;SDS011;47351;53.326;-6.298;2022-12-05T05:56:26;13.40;;;4.80;;
61487;SDS011;47351;53.326;-6.298;2022-12-05T05:59:19;12.90;;;4.40;;
61487;SDS011;47351;53.326;-6.298;2022-12-05T06:02:13;13.00;;;4.60;;
61487;SDS011;47351;53.326;-6.298;2022-12-05T06:05:09;9.50;;;4.70;;
61487;SDS011;47351;53.326;-6.298;2022-12-05T06:08:01;12.50;;;4.40;;
61487;SDS011;47351;53.326;-6.298;2022-12-05T06:10:54;12.20;;;4.20;;
61487;SDS011;47351;53.326;-6.298;2022-12-05T06:13:58;12.50;;;4.10;;
61487;SDS011;47351;53.326;-6.298;2022-12-05T06:16:52;9.90;;;3.60;;
61487;SDS011;47351;53.326;-6.298;2022-12-05T06:19:44;11.60;;;3.80;;
61487;SDS011;47351;53.326;-6.298;2022-12-05T06:22:39;10.50;;;3.40;;
61487;SDS011;47351;53.326;-6.298;2022-12-05T06:25:32;8.80;;;3.50;;
61487;SDS011;47351;53.326;-6.298;2022-12-05T06:28:25;9.40;;;3.40;;
61487;SDS011;47351;53.326;-6.298;2022-12-05T06:31:22;9.50;;;3.60;;
61487;SDS011;47351;53.326;-6.298;2022-12-05T06:34:20;8.70;;;3.60;;
61487;SDS011;47351;53.326;-6.298;2022-12-05T06:37:16;7.60;;;3.20;;
61487;SDS011;47351;53.326;-6.298;2022-12-05T06:40:12;8.80;;;3.30;;
61487;SDS011;47351;53.326;-6.298;2022-12-05T06:43:07;10.60;;;3.40;;
61487;SDS011;47351;53.326;-6.298;2022-12-05T06:46:04;11.80;;;3.80;;
61487;SDS011;47351;53.326;-6.298;2022-12-05T06:48:58;13.10;;;4.20;;
61487;SDS011;47351;53.326;-6.298;2022-12-05T06:51:51;13.90;;;3.30;;
61487;SDS011;47351;53.326;-6.298;2022-12-05T06:54:44;9.20;;;3.60;;
61487;SDS011;47351;53.326;-6.298;2022-12-05T06:57:37;8.80;;;3.20;;
61487;SDS011;47351;53.326;-6.298;2022-12-05T07:00:29;11.80;;;4.20;;
61487;SDS011;47351;53.326;-6.298;2022-12-05T07:08:39;9.00;;;3.50;;
61487;SDS011;47351;53.326;-6.298;2022-12-05T07:15:12;11.40;;;3.30;;
61487;SDS011;47351;53.326;-6.298;2022-12-05T08:55:00;5.80;;;2.30;;
61487;SDS011;47351;53.326;-6.298;2022-12-05T09:03:02;8.30;;;2.10;;
61487;SDS011;47351;53.326;-6.298;2022-12-05T09:05:55;11.60;;;2.70;;
61487;SDS011;47351;53.326;-6.298;2022-12-05T09:08:58;11.40;;;2.60;;
61487;SDS011;47351;53.326;-6.298;2022-12-05T09:12:02;8.10;;;2.10;;
61487;SDS011;47351;53.326;-6.298;2022-12-05T09:14:54;7.70;;;2.10;;
61487;SDS011;47351;53.326;-6.298;2022-12-05T09:17:49;6.70;;;2.20;;
61487;SDS011;47351;53.326;-6.298;2022-12-05T09:20:44;7.50;;;2.00;;
61487;SDS011;47351;53.326;-6.298;2022-12-05T09:23:39;7.20;;;1.90;;
61487;SDS011;47351;53.326;-6.298;2022-12-05T09:27:10;5.60;;;1.60;;
61487;SDS011;47351;53.326;-6.298;2022-12-05T09:30:25;12.60;;;2.70;;
61487;SDS011;47351;53.326;-6.298;2022-12-05T09:33:23;14.00;;;3.40;;
61487;SDS011;47351;53.326;-6.298;2022-12-05T09:36:37;10.20;;;2.40;;
61487;SDS011;47351;53.326;-6.298;2022-12-05T09:39:33;11.90;;;2.70;;
61487;SDS011;47351;53.326;-6.298;2022-12-05T09:42:28;18.70;;;3.30;;
61487;SDS011;47351;53.326;-6.298;2022-12-05T09:46:40;12.30;;;2.70;;
61487;SDS011;47351;53.326;-6.298;2022-12-05T09:51:08;19.00;;;3.50;;
61487;SDS011;47351;53.326;-6.298;2022-12-05T09:54:02;8.00;;;2.40;;
61487;SDS011;47351;53.326;-6.298;2022-12-05T09:56:54;12.30;;;2.30;;
61487;SDS011;47351;53.326;-6.298;2022-12-05T09:59:47;14.90;;;2.20;;
61487;SDS011;47351;53.326;-6.298;2022-12-05T10:02:47;12.50;;;1.90;;
61487;SDS011;47351;53.326;-6.298;2022-12-05T10:05:49;5.80;;;1.70;;
61487;SDS011;47351;53.326;-6.298;2022-12-05T10:09:03;8.50;;;1.80;;
61487;SDS011;47351;53.326;-6.298;2022-12-05T10:12:14;7.70;;;1.60;;
61487;SDS011;47351;53.326;-6.298;2022-12-05T10:15:12;9.60;;;1.60;;
61487;SDS011;47351;53.326;-6.298;2022-12-05T10:18:45;7.30;;;1.90;;
61487;SDS011;47351;53.326;-6.298;2022-12-05T10:21:44;8.20;;;1.60;;
61487;SDS011;47351;53.326;-6.298;2022-12-05T10:24:41;4.30;;;1.70;;
61487;SDS011;47351;53.326;-6.298;2022-12-05T10:27:38;6.90;;;1.90;;
61487;SDS011;47351;53.326;-6.298;2022-12-05T10:30:35;8.40;;;2.00;;
61487;SDS011;47351;53.326;-6.298;2022-12-05T10:33:32;9.20;;;1.50;;
61487;SDS011;47351;53.326;-6.298;2022-12-05T10:36:32;4.70;;;1.70;;
61487;SDS011;47351;53.326;-6.298;2022-12-05T10:39:24;6.60;;;1.80;;
61487;SDS011;47351;53.326;-6.298;2022-12-05T10:42:22;4.60;;;1.30;;
61487;SDS011;47351;53.326;-6.298;2022-12-05T10:45:20;3.10;;;1.10;;
61487;SDS011;47351;53.326;-6.298;2022-12-05T10:48:13;4.40;;;1.30;;
61487;SDS011;47351;53.326;-6.298;2022-12-05T10:51:10;7.00;;;1.70;;
61487;SDS011;47351;53.326;-6.298;2022-12-05T10:54:12;3.70;;;1.70;;
61487;SDS011;47351;53.326;-6.298;2022-12-05T10:57:18;5.90;;;1.70;;
61487;SDS011;47351;53.326;-6.298;2022-12-05T11:00:16;4.90;;;1.50;;
61487;SDS011;47351;53.326;-6.298;2022-12-05T11:03:23;9.10;;;1.70;;
61487;SDS011;47351;53.326;-6.298;2022-12-05T11:12:15;8.50;;;1.50;;
61487;SDS011;47351;53.326;-6.298;2022-12-05T11:31:02;11.00;;;1.80;;
61487;SDS011;47351;53.326;-6.298;2022-12-05T12:59:25;6.50;;;1.90;;
